createdAt,value
2023-04-12T00:00:10.850Z,91.00
2023-04-12T00:02:40.524Z,91.00
2023-04-12T00:05:11.733Z,91.00
2023-04-12T00:07:40.464Z,91.00
2023-04-12T00:10:10.950Z,91.00
2023-04-12T00:12:41.012Z,91.00
2023-04-12T00:15:10.394Z,91.00
2023-04-12T00:17:38.674Z,91.00
2023-04-12T00:20:12.881Z,91.10
2023-04-12T00:22:42.544Z,91.10
2023-04-12T00:25:12.655Z,91.00
2023-04-12T00:27:41.001Z,91.00
2023-04-12T00:30:10.140Z,91.00
2023-04-12T00:32:38.443Z,91.00
2023-04-12T00:35:07.495Z,90.90
2023-04-12T00:37:38.763Z,90.90
2023-04-12T00:40:10.073Z,90.90
2023-04-12T00:42:40.201Z,90.80
2023-04-12T00:45:09.568Z,90.80
2023-04-12T00:47:39.112Z,90.90
2023-04-12T00:50:09.370Z,90.90
2023-04-12T00:52:38.049Z,90.90
2023-04-12T00:55:08.327Z,90.90
2023-04-12T00:57:40.527Z,90.90
2023-04-12T01:00:13.723Z,90.90
2023-04-12T01:02:47.747Z,90.90
2023-04-12T01:05:22.411Z,90.80
2023-04-12T01:08:06.769Z,90.90
2023-04-12T01:10:44.813Z,90.90
2023-04-12T01:13:27.942Z,90.90
2023-04-12T01:16:05.534Z,91.00
2023-04-12T01:18:40.840Z,91.00
2023-04-12T01:21:17.421Z,91.00
2023-04-12T01:23:59.804Z,90.90
2023-04-12T01:26:42.484Z,90.90
2023-04-12T01:29:14.524Z,91.00
2023-04-12T01:31:50.559Z,91.00
2023-04-12T01:34:19.575Z,91.00
2023-04-12T01:36:49.351Z,91.00
2023-04-12T01:39:17.939Z,91.00
2023-04-12T01:41:48.957Z,91.00
2023-04-12T01:44:19.582Z,91.10
2023-04-12T01:46:49.637Z,91.20
2023-04-12T01:49:20.156Z,91.30
2023-04-12T01:51:56.591Z,91.40
2023-04-12T01:54:29.289Z,91.60
2023-04-12T01:57:01.951Z,91.70
2023-04-12T01:59:35.966Z,91.90
2023-04-12T02:02:05.130Z,91.90
2023-04-12T02:04:34.688Z,92.00
2023-04-12T02:07:03.770Z,92.40
2023-04-12T02:09:32.248Z,92.60
2023-04-12T02:12:01.147Z,92.80
2023-04-12T02:14:31.532Z,92.90
2023-04-12T02:17:02.427Z,93.10
2023-04-12T02:19:31.484Z,93.50
2023-04-12T02:22:01.073Z,93.70
2023-04-12T02:24:30.993Z,93.80
2023-04-12T02:27:01.432Z,94.00
2023-04-12T02:29:31.300Z,93.80
2023-04-12T02:32:01.060Z,93.50
2023-04-12T02:34:34.385Z,93.40
2023-04-12T02:37:17.754Z,93.40
2023-04-12T02:39:46.254Z,93.40
2023-04-12T02:42:14.801Z,93.40
2023-04-12T02:44:47.812Z,93.50
2023-04-12T02:47:17.852Z,93.50
2023-04-12T02:49:49.516Z,93.60
2023-04-12T02:52:19.957Z,93.80
2023-04-12T02:55:03.170Z,93.80
2023-04-12T02:57:31.750Z,93.70
2023-04-12T02:59:59.985Z,93.80
2023-04-12T03:02:46.031Z,93.90
2023-04-12T03:05:23.622Z,94.00
2023-04-12T03:07:53.002Z,94.10
2023-04-12T03:10:27.384Z,94.20
2023-04-12T03:13:02.683Z,94.40
2023-04-12T03:15:36.009Z,94.30
2023-04-12T03:18:06.212Z,94.40
2023-04-12T03:20:47.447Z,94.40
2023-04-12T03:23:17.101Z,94.50
2023-04-12T03:25:49.311Z,94.70
2023-04-12T03:28:31.916Z,94.60
2023-04-12T03:31:01.687Z,94.60
2023-04-12T03:33:41.612Z,94.80
2023-04-12T03:36:21.239Z,94.90
2023-04-12T03:38:54.847Z,95.00
2023-04-12T03:41:24.133Z,95.30
2023-04-12T03:43:52.654Z,95.80
2023-04-12T03:46:21.695Z,95.30
2023-04-12T03:48:58.904Z,95.30
2023-04-12T03:51:30.828Z,95.40
2023-04-12T03:54:04.798Z,95.60
2023-04-12T03:56:48.929Z,95.80
2023-04-12T03:59:25.274Z,97.60
2023-04-12T04:01:53.599Z,96.30
2023-04-12T04:04:25.413Z,96.90
2023-04-12T04:06:58.331Z,96.50
2023-04-12T04:09:28.574Z,96.80
2023-04-12T04:11:56.948Z,96.40
2023-04-12T04:14:27.739Z,96.40
2023-04-12T04:16:56.544Z,96.30
2023-04-12T04:19:26.438Z,96.30
2023-04-12T04:21:56.875Z,96.40
2023-04-12T04:24:25.232Z,96.40
2023-04-12T04:26:56.870Z,96.50
2023-04-12T04:29:29.138Z,96.40
2023-04-12T04:31:59.140Z,96.50
2023-04-12T04:34:29.523Z,96.70
2023-04-12T04:37:10.245Z,96.50
2023-04-12T04:39:40.105Z,96.60
2023-04-12T04:42:09.691Z,96.70
2023-04-12T04:44:42.717Z,96.70
2023-04-12T04:47:12.912Z,96.80
2023-04-12T04:49:43.321Z,96.80
2023-04-12T04:52:26.511Z,96.70
2023-04-12T04:55:00.099Z,96.80
2023-04-12T04:57:34.670Z,96.60
2023-04-12T05:00:10.881Z,96.70
2023-04-12T05:02:42.973Z,96.80
2023-04-12T05:05:17.000Z,96.80
2023-04-12T05:07:47.372Z,96.80
2023-04-12T05:10:16.233Z,97.00
2023-04-12T05:12:45.478Z,97.00
2023-04-12T05:15:16.094Z,97.00
2023-04-12T05:17:44.705Z,97.10
2023-04-12T05:20:13.374Z,97.10
2023-04-12T05:22:43.030Z,97.10
2023-04-12T05:25:11.810Z,97.00
2023-04-12T05:27:47.281Z,96.90
2023-04-12T05:30:18.310Z,97.10
2023-04-12T05:32:47.166Z,97.00
2023-04-12T05:35:18.529Z,96.80
2023-04-12T05:37:50.212Z,96.90
2023-04-12T05:40:18.688Z,97.00
2023-04-12T05:42:50.461Z,96.90
2023-04-12T05:45:19.014Z,97.20
2023-04-12T05:47:47.299Z,97.20
2023-04-12T05:50:15.885Z,97.30
2023-04-12T05:52:45.315Z,97.40
2023-04-12T05:55:16.332Z,97.40
2023-04-12T05:57:46.811Z,97.30
2023-04-12T06:00:18.893Z,97.30
2023-04-12T06:02:50.593Z,97.40
2023-04-12T06:05:19.961Z,97.40
2023-04-12T06:07:49.000Z,97.30
2023-04-12T06:10:19.069Z,97.30
2023-04-12T06:12:53.329Z,97.40
2023-04-12T06:15:22.231Z,97.40
2023-04-12T06:17:55.754Z,97.50
2023-04-12T06:20:24.240Z,97.50
2023-04-12T06:22:53.037Z,97.60
2023-04-12T06:25:24.306Z,97.60
2023-04-12T06:27:53.818Z,98.00
2023-04-12T06:30:24.562Z,97.60
2023-04-12T06:32:54.900Z,97.70
2023-04-12T06:35:24.261Z,97.70
2023-04-12T06:37:52.882Z,97.40
2023-04-12T06:40:21.306Z,97.60
2023-04-12T06:42:51.138Z,97.90
2023-04-12T06:45:23.947Z,97.50
2023-04-12T06:47:52.286Z,97.70
2023-04-12T06:50:20.692Z,97.60
2023-04-12T06:52:48.963Z,97.60
2023-04-12T06:55:17.358Z,97.80
2023-04-12T06:57:46.334Z,97.60
2023-04-12T07:00:16.813Z,97.80
2023-04-12T07:02:45.196Z,97.80
2023-04-12T07:05:13.646Z,97.60
2023-04-12T07:07:41.866Z,97.80
2023-04-12T07:10:10.713Z,97.90
2023-04-12T07:12:38.964Z,97.80
2023-04-12T07:15:07.956Z,98.00
2023-04-12T07:17:37.746Z,97.80
2023-04-12T07:20:07.094Z,97.80
2023-04-12T07:22:35.505Z,98.00
2023-04-12T07:25:05.225Z,97.80
2023-04-12T07:27:33.444Z,98.00
2023-04-12T07:30:01.639Z,98.00
2023-04-12T07:32:30.267Z,98.40
2023-04-12T07:34:59.899Z,98.30
2023-04-12T07:37:28.069Z,99.50
2023-04-12T07:39:56.426Z,99.90
2023-04-12T07:42:24.897Z,99.90
2023-04-12T07:44:53.186Z,98.70
2023-04-12T07:47:21.421Z,98.70
2023-04-12T07:49:49.874Z,98.40
2023-04-12T07:52:19.626Z,98.80
2023-04-12T07:54:47.902Z,98.90
2023-04-12T07:57:16.118Z,98.70
2023-04-12T07:59:44.367Z,98.90
2023-04-12T08:02:12.885Z,99.10
2023-04-12T08:04:44.410Z,98.90
2023-04-12T08:07:12.584Z,99.10
2023-04-12T08:09:42.123Z,99.10
2023-04-12T08:12:10.637Z,99.40
2023-04-12T08:14:40.804Z,99.60
2023-04-12T08:17:09.330Z,99.80
2023-04-12T08:19:37.941Z,99.70
2023-04-12T08:22:06.206Z,99.60
2023-04-12T08:24:34.550Z,99.80
2023-04-12T08:27:04.169Z,99.90
2023-04-12T08:29:32.484Z,99.30
2023-04-12T08:32:01.593Z,99.90
2023-04-12T08:34:29.819Z,99.90
2023-04-12T08:37:00.384Z,99.90
2023-04-12T08:39:28.702Z,99.90
2023-04-12T08:41:58.102Z,99.90
2023-04-12T08:44:36.684Z,99.90
2023-04-12T08:47:06.085Z,99.90
2023-04-12T08:49:35.402Z,99.90
2023-04-12T08:52:06.838Z,99.90
2023-04-12T08:54:36.028Z,99.90
2023-04-12T08:57:06.671Z,99.90
2023-04-12T08:59:39.958Z,99.90
2023-04-12T09:02:08.416Z,99.90
2023-04-12T09:04:49.632Z,99.90
2023-04-12T09:07:18.364Z,99.90
2023-04-12T09:09:48.022Z,99.90
2023-04-12T09:12:16.415Z,99.90
2023-04-12T09:14:46.246Z,99.90
2023-04-12T09:17:24.926Z,99.90
2023-04-12T09:19:55.185Z,99.90
2023-04-12T09:22:34.814Z,99.90
2023-04-12T09:25:03.513Z,99.90
2023-04-12T09:27:46.261Z,99.90
2023-04-12T09:30:17.684Z,99.90
2023-04-12T09:32:46.325Z,99.90
2023-04-12T09:35:14.597Z,99.90
2023-04-12T09:37:43.134Z,99.90
2023-04-12T09:40:12.414Z,99.90
2023-04-12T09:42:53.838Z,99.90
2023-04-12T09:45:26.503Z,99.90
2023-04-12T09:47:56.549Z,99.90
2023-04-12T09:50:28.539Z,99.90
2023-04-12T09:52:57.871Z,99.90
2023-04-12T09:55:27.944Z,99.90
2023-04-12T09:57:57.017Z,99.90
2023-04-12T10:00:27.868Z,99.90
2023-04-12T10:02:57.826Z,99.90
2023-04-12T10:05:27.950Z,99.90
2023-04-12T10:07:59.484Z,99.90
2023-04-12T10:10:31.769Z,99.90
2023-04-12T10:13:02.245Z,99.90
2023-04-12T10:15:33.765Z,99.90
2023-04-12T10:18:08.744Z,99.90
2023-04-12T10:20:37.700Z,99.90
2023-04-12T10:23:07.840Z,99.90
2023-04-12T10:25:36.363Z,99.90
2023-04-12T10:28:15.892Z,99.90
2023-04-12T10:30:47.638Z,99.90
2023-04-12T10:33:20.660Z,99.90
2023-04-12T10:35:57.618Z,99.90
2023-04-12T10:38:27.356Z,99.90
2023-04-12T10:41:15.402Z,99.90
2023-04-12T10:43:44.858Z,99.90
2023-04-12T10:46:54.507Z,99.90
2023-04-12T10:49:24.324Z,99.90
2023-04-12T10:52:14.444Z,99.90
2023-04-12T10:54:42.995Z,99.90
2023-04-12T10:57:42.004Z,99.90
2023-04-12T11:00:11.300Z,99.90
2023-04-12T11:03:13.315Z,99.90
2023-04-12T11:06:02.762Z,99.90
2023-04-12T11:08:57.291Z,99.90
2023-04-12T11:11:27.500Z,99.90
2023-04-12T11:13:59.273Z,99.90
2023-04-12T11:16:27.778Z,99.90
2023-04-12T11:18:57.899Z,99.90
2023-04-12T11:21:27.171Z,99.90
2023-04-12T11:23:56.490Z,99.90
2023-04-12T11:26:25.692Z,99.90
2023-04-12T11:28:56.021Z,99.90
2023-04-12T11:31:24.836Z,99.90
2023-04-12T11:33:53.342Z,99.90
2023-04-12T11:36:23.251Z,99.90
2023-04-12T11:38:52.646Z,99.90
2023-04-12T11:41:21.010Z,99.90
2023-04-12T11:43:49.840Z,99.90
2023-04-12T11:46:18.578Z,99.90
2023-04-12T11:48:47.496Z,99.90
2023-04-12T11:51:25.224Z,99.90
2023-04-12T11:53:54.771Z,99.90
2023-04-12T11:56:26.527Z,99.90
2023-04-12T11:58:54.578Z,99.90
2023-04-12T12:01:24.026Z,99.90
2023-04-12T12:03:52.897Z,99.90
2023-04-12T12:06:24.608Z,99.90
2023-04-12T12:08:53.894Z,99.90
2023-04-12T12:11:23.561Z,99.90
2023-04-12T12:13:53.940Z,99.90
2023-04-12T12:16:27.870Z,99.90
2023-04-12T12:18:57.347Z,99.90
2023-04-12T12:21:27.658Z,99.90
2023-04-12T12:23:58.504Z,99.90
2023-04-12T12:26:30.473Z,99.90
2023-04-12T12:29:00.923Z,99.90
2023-04-12T12:31:29.942Z,99.90
2023-04-12T12:33:59.515Z,99.90
2023-04-12T12:36:34.001Z,99.90
2023-04-12T12:39:10.403Z,99.90
2023-04-12T12:41:39.834Z,99.90
2023-04-12T12:44:08.718Z,99.90
2023-04-12T12:49:08.481Z,99.90
2023-04-12T12:51:38.124Z,99.90
2023-04-12T12:54:06.386Z,99.90
2023-04-12T12:56:35.609Z,99.90
2023-04-12T12:59:04.388Z,99.90
2023-04-12T13:01:32.810Z,99.90
2023-04-12T13:04:01.399Z,99.90
2023-04-12T13:06:30.042Z,99.90
2023-04-12T13:08:59.946Z,99.90
2023-04-12T13:11:28.578Z,99.90
2023-04-12T13:13:56.926Z,99.90
2023-04-12T13:16:27.044Z,99.90
2023-04-12T13:18:55.856Z,99.90
2023-04-12T13:21:24.706Z,99.90
2023-04-12T13:23:53.608Z,99.90
2023-04-12T13:26:25.709Z,99.90
2023-04-12T13:28:54.149Z,99.90
2023-04-12T13:31:22.732Z,99.90
2023-04-12T13:33:51.217Z,99.90
2023-04-12T13:36:19.434Z,99.90
2023-04-12T13:38:47.815Z,99.90
2023-04-12T13:41:16.010Z,99.90
2023-04-12T13:43:45.676Z,99.80
2023-04-12T13:46:13.931Z,99.90
2023-04-12T13:48:42.814Z,99.70
2023-04-12T13:51:11.156Z,99.70
2023-04-12T13:53:39.433Z,99.60
2023-04-12T13:56:08.373Z,99.60
2023-04-12T13:58:39.714Z,99.60
2023-04-12T14:01:10.197Z,99.60
2023-04-12T14:03:38.624Z,99.60
2023-04-12T14:06:07.860Z,99.40
2023-04-12T14:08:36.437Z,99.40
2023-04-12T14:11:04.782Z,99.60
2023-04-12T14:13:33.174Z,99.80
2023-04-12T14:16:01.498Z,99.70
2023-04-12T14:18:31.384Z,99.70
2023-04-12T14:21:00.743Z,99.70
2023-04-12T14:23:30.753Z,99.80
2023-04-12T14:25:59.171Z,99.80
2023-04-12T14:28:30.694Z,99.80
2023-04-12T14:31:00.509Z,99.80
2023-04-12T14:33:30.494Z,99.80
2023-04-12T14:36:01.266Z,99.60
2023-04-12T14:38:29.639Z,99.70
2023-04-12T14:40:57.853Z,99.60
2023-04-12T14:43:26.241Z,99.90
2023-04-12T14:45:54.580Z,99.50
2023-04-12T14:48:22.841Z,99.50
2023-04-12T14:50:52.690Z,99.50
2023-04-12T14:53:21.180Z,99.60
2023-04-12T14:55:49.651Z,99.60
2023-04-12T14:58:17.846Z,99.30
2023-04-12T15:00:46.420Z,99.40
2023-04-12T15:03:16.697Z,99.30
2023-04-12T15:05:45.768Z,99.20
2023-04-12T15:08:15.617Z,99.40
2023-04-12T15:10:44.657Z,99.20
2023-04-12T15:13:12.829Z,99.20
2023-04-12T15:15:41.760Z,99.10
2023-04-12T15:18:11.408Z,98.90
2023-04-12T15:20:39.746Z,98.90
2023-04-12T15:23:08.170Z,98.90
2023-04-12T15:25:37.829Z,98.80
2023-04-12T15:28:06.435Z,98.80
2023-04-12T15:30:34.908Z,98.80
2023-04-12T15:33:03.470Z,98.90
2023-04-12T15:35:31.770Z,99.10
2023-04-12T15:38:00.280Z,99.10
2023-04-12T15:40:28.860Z,98.90
2023-04-12T15:42:58.517Z,99.00
2023-04-12T15:45:26.784Z,99.00
2023-04-12T15:47:55.725Z,98.90
2023-04-12T15:50:23.952Z,98.90
2023-04-12T15:52:54.160Z,98.90
2023-04-12T15:55:22.655Z,99.00
2023-04-12T15:57:50.992Z,98.90
2023-04-12T16:00:24.133Z,98.90
2023-04-12T16:02:56.302Z,98.90
2023-04-12T16:05:26.649Z,98.70
2023-04-12T16:07:56.825Z,98.70
2023-04-12T16:10:25.294Z,98.80
2023-04-12T16:12:55.652Z,98.80
2023-04-12T16:15:25.333Z,98.80
2023-04-12T16:17:54.350Z,98.70
2023-04-12T16:20:23.875Z,98.70
2023-04-12T16:22:55.226Z,98.70
2023-04-12T16:25:24.197Z,98.70
2023-04-12T16:27:52.630Z,98.80
2023-04-12T16:30:22.471Z,98.80
2023-04-12T16:32:52.252Z,99.00
2023-04-12T16:35:20.628Z,99.00
2023-04-12T16:37:48.899Z,99.10
2023-04-12T16:40:18.083Z,99.00
2023-04-12T16:42:46.644Z,98.90
2023-04-12T16:45:15.532Z,99.10
2023-04-12T16:47:46.874Z,99.00
2023-04-12T16:50:17.386Z,99.10
2023-04-12T16:52:45.954Z,99.00
2023-04-12T16:55:16.229Z,99.00
2023-04-12T16:57:45.966Z,99.10
2023-04-12T17:00:20.544Z,99.10
2023-04-12T17:02:51.021Z,99.50
2023-04-12T17:05:21.415Z,99.30
2023-04-12T17:07:51.341Z,99.40
2023-04-12T17:10:21.262Z,99.70
2023-04-12T17:12:51.659Z,99.40
2023-04-12T17:15:22.220Z,99.60
2023-04-12T17:17:51.939Z,99.50
2023-04-12T17:20:23.148Z,99.30
2023-04-12T17:22:52.218Z,99.20
2023-04-12T17:25:22.333Z,99.20
2023-04-12T17:27:54.325Z,99.20
2023-04-12T17:30:22.681Z,99.20
2023-04-12T17:32:51.867Z,99.00
2023-04-12T17:35:21.685Z,99.10
2023-04-12T17:37:49.973Z,99.10
2023-04-12T17:40:18.433Z,99.10
2023-04-12T17:42:46.849Z,99.30
2023-04-12T17:45:16.018Z,99.30
2023-04-12T17:47:44.355Z,99.20
2023-04-12T17:50:13.216Z,99.20
2023-04-12T17:52:42.897Z,99.10
2023-04-12T17:55:12.549Z,99.10
2023-04-12T17:57:40.999Z,99.30
2023-04-12T18:00:11.798Z,98.90
2023-04-12T18:02:44.926Z,98.90
2023-04-12T18:05:13.559Z,98.80
2023-04-12T18:07:43.178Z,98.90
2023-04-12T18:10:13.007Z,98.80
2023-04-12T18:12:41.438Z,98.80
2023-04-12T18:15:11.445Z,98.60
2023-04-12T18:17:40.789Z,98.70
2023-04-12T18:20:11.472Z,98.70
2023-04-12T18:22:40.112Z,98.60
2023-04-12T18:25:11.715Z,98.70
2023-04-12T18:27:39.963Z,99.90
2023-04-12T18:30:09.568Z,99.90
2023-04-12T18:32:38.012Z,99.90
2023-04-12T18:35:07.326Z,99.90
2023-04-12T18:37:36.996Z,99.90
2023-04-12T18:40:08.242Z,99.90
2023-04-12T18:42:38.139Z,99.90
2023-04-12T18:45:07.552Z,99.90
2023-04-12T18:47:38.871Z,99.90
2023-04-12T18:50:08.566Z,99.90
2023-04-12T18:55:07.136Z,99.90
2023-04-12T18:57:35.811Z,99.90
2023-04-12T19:00:14.354Z,99.90
2023-04-12T19:02:42.888Z,99.90
2023-04-12T19:05:14.677Z,99.90
2023-04-12T19:07:43.528Z,99.90
2023-04-12T19:10:12.613Z,99.90
2023-04-12T19:12:41.046Z,99.90
2023-04-12T19:15:12.237Z,99.90
2023-04-12T19:17:40.926Z,99.90
2023-04-12T19:20:10.755Z,99.90
2023-04-12T19:22:39.245Z,99.90
2023-04-12T19:25:08.675Z,99.90
2023-04-12T19:27:37.341Z,99.90
2023-04-12T19:30:07.220Z,99.90
2023-04-12T19:32:37.007Z,99.90
2023-04-12T19:35:07.470Z,99.90
2023-04-12T19:37:36.050Z,99.90
2023-04-12T19:40:05.595Z,99.90
2023-04-12T19:42:33.909Z,99.90
2023-04-12T19:45:02.487Z,99.90
2023-04-12T19:47:30.851Z,99.90
2023-04-12T19:50:01.274Z,99.90
2023-04-12T19:52:30.548Z,99.90
2023-04-12T19:55:01.619Z,99.90
2023-04-12T19:57:30.249Z,99.90
2023-04-12T19:59:58.606Z,99.90
2023-04-12T20:02:27.275Z,99.90
2023-04-12T20:04:55.589Z,99.90
2023-04-12T20:07:25.221Z,99.90
2023-04-12T20:09:53.734Z,99.90
2023-04-12T20:12:21.962Z,99.90
2023-04-12T20:14:50.424Z,99.90
2023-04-12T20:17:18.721Z,99.90
2023-04-12T20:19:47.030Z,99.90
2023-04-12T20:22:15.368Z,99.90
2023-04-12T20:24:47.709Z,99.90
2023-04-12T20:27:17.456Z,99.90
2023-04-12T20:29:46.704Z,99.90
2023-04-12T20:32:15.286Z,99.90
2023-04-12T20:34:46.717Z,99.90
2023-04-12T20:37:15.712Z,99.90
2023-04-12T20:39:45.664Z,99.90
2023-04-12T20:42:16.224Z,99.90
2023-04-12T20:44:44.470Z,99.90
2023-04-12T20:47:13.131Z,99.90
2023-04-12T20:49:42.389Z,99.90
2023-04-12T20:52:11.056Z,99.90
2023-04-12T20:54:39.516Z,99.90
2023-04-12T20:57:10.493Z,99.90
2023-04-12T20:59:38.718Z,99.90
2023-04-12T21:02:07.117Z,99.90
2023-04-12T21:04:36.584Z,99.90
2023-04-12T21:07:06.312Z,99.90
2023-04-12T21:09:35.343Z,99.90
2023-04-12T21:12:06.274Z,99.90
2023-04-12T21:14:37.790Z,99.90
2023-04-12T21:17:07.336Z,99.90
2023-04-12T21:19:39.019Z,99.90
2023-04-12T21:22:08.323Z,99.90
2023-04-12T21:24:38.347Z,99.90
2023-04-12T21:27:08.755Z,99.90
2023-04-12T21:29:41.349Z,99.90
2023-04-12T21:32:09.900Z,99.90
2023-04-12T21:34:39.239Z,99.90
2023-04-12T21:37:07.841Z,99.90
2023-04-12T21:39:36.150Z,99.90
2023-04-12T21:42:04.591Z,99.90
2023-04-12T21:44:32.933Z,99.90
2023-04-12T21:47:02.763Z,99.90
2023-04-12T21:49:31.538Z,99.90
2023-04-12T21:51:59.766Z,99.90
2023-04-12T21:54:29.048Z,99.90
2023-04-12T21:56:57.385Z,99.90
2023-04-12T21:59:26.929Z,99.90
2023-04-12T22:01:55.279Z,99.90
2023-04-12T22:04:24.960Z,99.90
2023-04-12T22:06:53.335Z,99.90
2023-04-12T22:09:21.559Z,99.90
2023-04-12T22:11:50.340Z,99.90
2023-04-12T22:14:18.557Z,99.90
2023-04-12T22:16:46.913Z,99.90
2023-04-12T22:19:16.351Z,99.90
2023-04-12T22:21:48.364Z,99.90
2023-04-12T22:24:17.301Z,99.90
2023-04-12T22:26:45.772Z,99.90
2023-04-12T22:29:17.724Z,99.90
2023-04-12T22:31:47.048Z,99.90
2023-04-12T22:34:15.306Z,99.90
2023-04-12T22:36:46.706Z,99.90
2023-04-12T22:39:15.631Z,99.90
2023-04-12T22:41:49.118Z,99.90
2023-04-12T22:44:18.404Z,99.90
2023-04-12T22:46:48.413Z,99.90
2023-04-12T22:49:17.571Z,99.90
2023-04-12T22:51:47.174Z,99.90
2023-04-12T22:56:46.234Z,99.90
2023-04-12T22:59:15.618Z,99.90
2023-04-12T23:01:44.702Z,99.90
2023-04-12T23:04:13.281Z,99.90
2023-04-12T23:06:42.875Z,99.90
2023-04-12T23:09:13.618Z,99.90
2023-04-12T23:11:42.997Z,99.90
2023-04-12T23:14:11.343Z,99.90
2023-04-12T23:16:44.403Z,99.90
2023-04-12T23:19:14.453Z,99.90
2023-04-12T23:21:42.847Z,99.90
2023-04-12T23:24:15.422Z,99.90
2023-04-12T23:26:45.144Z,99.90
2023-04-12T23:29:13.788Z,99.90
2023-04-12T23:31:42.246Z,99.90
2023-04-12T23:34:10.569Z,99.90
2023-04-12T23:36:39.077Z,99.90
2023-04-12T23:39:09.386Z,99.90
2023-04-12T23:41:40.834Z,99.90
2023-04-12T23:44:09.257Z,99.90
2023-04-12T23:46:37.565Z,99.90
2023-04-12T23:49:05.862Z,99.90
2023-04-12T23:51:34.343Z,99.90
2023-04-12T23:54:02.564Z,99.90
2023-04-12T23:56:31.591Z,99.90
2023-04-12T23:59:01.374Z,99.90
